Time;durP1;ratioP1;P1;durP2;ratioP2;P2;SDS_P1;SDS_P2;PMS_P1;PMS_P2;Temp;Humidity;BMP_temperature;BMP_pressure;BME280_temperature;BME280_humidity;BME280_pressure;Samples;Min_cycle;Max_cycle;Signal;HPM_P1;HPM_P2
2021/12/21 08:48:05;;;;;;;39.60;27.10;;;-0.70;99.90;;;;;;5051509;28;20145;-89
2021/12/21 08:50:44;;;;;;;42.90;26.03;;;-0.20;99.90;;;;;;5063053;28;20034;-87
2021/12/21 08:53:27;;;;;;;;;;;;;;;;;;;;;
2021/12/21 08:56:06;;;;;;;;;;;;;;;;;;;;;
2021/12/21 08:58:42;;;;;;;;;;;;;;;;;;;;;
2021/12/21 09:01:33;;;;;;;44.07;26.30;;;0.00;99.90;;;;;;5071278;28;20051;-90
2021/12/21 09:07:03;;;;;;;;;;;;;;;;;;;;;
2021/12/21 09:13:03;;;;;;;;;;;0.20;99.90;;;;;;5066103;28;20037;-89
2021/12/21 09:15:53;;;;;;;;;;;;;;;;;;;;;
2021/12/21 09:18:21;;;;;;;34.50;22.90;;;0.30;99.90;;;;;;5093564;28;20061;-86
2021/12/21 09:21:22;;;;;;;33.93;22.73;;;0.40;99.90;;;;;;5058924;28;20024;-87
2021/12/21 09:23:53;;;;;;;35.27;22.87;;;0.40;99.90;;;;;;5055650;28;20580;-86
2021/12/21 09:26:19;;;;;;;34.88;22.20;;;0.50;99.90;;;;;;5049586;28;20048;-87
2021/12/21 09:28:45;;;;;;;37.90;22.83;;;0.50;99.90;;;;;;5050229;28;20029;-86
2021/12/21 09:31:20;;;;;;;34.60;22.27;;;0.60;99.90;;;;;;5048729;28;20463;-86
2021/12/21 09:34:24;;;;;;;;;;;;;;;;;;;;;
2021/12/21 09:37:27;;;;;;;;;;;;;;;;;;;;;
2021/12/21 09:40:11;;;;;;;;;;;;;;;;;;;;;
2021/12/21 09:42:52;;;;;;;;;;;;;;;;;;;;;
2021/12/21 09:46:08;;;;;;;;;;;;;;;;;;;;;
2021/12/21 09:48:44;;;;;;;31.73;21.07;;;0.90;99.90;;;;;;5056834;28;20382;-87
2021/12/21 09:51:23;;;;;;;;;;;;;;;;;;;;;
2021/12/21 09:54:02;;;;;;;36.93;22.20;;;1.00;99.90;;;;;;5056331;28;20033;-87
2021/12/21 09:57:07;;;;;;;33.50;21.37;;;1.00;99.90;;;;;;5008421;28;20065;-87
2021/12/21 10:03:35;;;;;;;35.07;19.87;;;1.20;99.90;;;;;;4975323;28;20401;-88
2021/12/21 10:06:12;;;;;;;;;;;;;;;;;;;;;
2021/12/21 10:09:20;;;;;;;;;;;;;;;;;;;;;
2021/12/21 10:12:27;;;;;;;;;;;;;;;;;;;;;
2021/12/21 10:15:47;;;;;;;30.97;20.00;;;1.30;99.90;;;;;;5037939;28;20056;-88
2021/12/21 10:22:53;;;;;;;29.70;20.07;;;1.50;99.90;;;;;;4898400;29;20085;-92
2021/12/21 10:25:36;;;;;;;;;;;;;;;;;;;;;
2021/12/21 10:31:42;;;;;;;;;;;;;;;;;;;;;
2021/12/21 10:35:00;;;;;;;;;;;;;;;;;;;;;
2021/12/21 10:41:47;;;;;;;37.97;22.27;;;1.80;99.90;;;;;;5031915;28;20037;-87
2021/12/21 10:44:18;;;;;;;31.63;20.87;;;1.80;99.90;;;;;;5041142;28;20045;-87
2021/12/21 10:47:14;;;;;;;34.08;21.55;;;1.90;99.90;;;;;;5051459;28;20494;-88
2021/12/21 10:50:09;;;;;;;34.00;23.17;;;2.00;99.90;;;;;;5026309;28;20028;-88
2021/12/21 10:52:58;;;;;;;;;;;;;;;;;;;;;
2021/12/21 10:56:05;;;;;;;31.70;22.70;;;2.00;99.90;;;;;;5036426;28;20021;-89
2021/12/21 10:59:01;;;;;;;;;;;;;;;;;;;;;
2021/12/21 11:02:12;;;;;;;33.67;24.33;;;2.20;99.90;;;;;;5034301;28;20033;-89
2021/12/21 11:18:41;;;;;;;;;;;;;;;;;;;;;
2021/12/21 11:21:57;;;;;;;;;;;;;;;;;;;;;
2021/12/21 11:25:21;;;;;;;36.70;24.25;;;2.50;99.90;;;;;;5004463;28;20028;-87
2021/12/21 11:28:49;;;;;;;;;;;;;;;;;;;;;
2021/12/21 11:31:57;;;;;;;;;;;;;;;;;;;;;
2021/12/21 11:34:35;;;;;;;40.95;25.85;;;2.60;99.90;;;;;;5048716;28;20041;-88
2021/12/21 11:37:41;;;;;;;37.20;25.05;;;2.70;99.90;;;;;;5037100;28;20100;-90
2021/12/21 11:44:23;;;;;;;36.47;23.35;;;2.70;99.90;;;;;;4999656;28;20394;-94
2021/12/21 11:47:30;;;;;;;35.67;24.93;;;2.80;99.90;;;;;;5018159;28;20377;-93
2021/12/21 11:50:55;;;;;;;;;;;;;;;;;;;;;
2021/12/21 11:54:03;;;;;;;40.88;26.05;;;2.90;99.90;;;;;;5029264;28;20029;-96
2021/12/21 11:57:40;;;;;;;;;;;;;;;;;;;;;
2021/12/21 12:01:01;;;;;;;;;;;;;;;;;;;;;
2021/12/21 12:04:13;;;;;;;;;;;;;;;;;;;;;
2021/12/21 12:21:23;;;;;;;;;;;;;;;;;;;;;
2021/12/21 12:35:14;;;;;;;;;;;;;;;;;;;;;
2021/12/21 12:38:32;;;;;;;;;;;;;;;;;;;;;
2021/12/21 12:41:18;;;;;;;;;;;;;;;;;;;;;
2021/12/21 12:44:20;;;;;;;27.95;18.88;;;3.60;99.90;;;;;;5030118;28;20031;-91
2021/12/21 12:49:56;;;;;;;32.28;20.10;;;3.60;99.90;;;;;;5035609;28;20134;-87
2021/12/21 12:56:23;;;;;;;31.27;19.73;;;3.60;99.90;;;;;;5044935;28;20043;-88
2021/12/21 12:58:52;;;;;;;28.15;17.52;;;3.60;99.90;;;;;;5032612;28;20029;-88
2021/12/21 13:05:09;;;;;;;;;;;;;;;;;;;;;
2021/12/21 13:07:44;;;;;;;;;;;;;;;;;;;;;
2021/12/21 13:13:57;;;;;;;;;;;;;;;;;;;;;
2021/12/21 13:23:49;;;;;;;;;;;;;;;;;;;;;
2021/12/21 13:40:50;;;;;;;;;;;;;;;;;;;;;
2021/12/21 13:53:41;;;;;;;;;;;;;;;;;;;;;
2021/12/21 13:56:21;;;;;;;23.80;15.05;;;3.80;98.60;;;;;;5035381;28;20591;-88
2021/12/21 13:59:34;;;;;;;25.25;15.10;;;3.80;98.70;;;;;;5039845;28;20025;-88
2021/12/21 14:05:54;;;;;;;;;;;;;;;;;;;;;
2021/12/21 14:08:40;;;;;;;28.67;18.60;;;3.90;98.60;;;;;;5036158;28;20489;-89
2021/12/21 14:11:40;;;;;;;;;;;;;;;;;;;;;
2021/12/21 14:18:25;;;;;;;;;;;;;;;;;;;;;
2021/12/21 14:21:36;;;;;;;;;;;;;;;;;;;;;
2021/12/21 14:24:45;;;;;;;;;;;;;;;;;;;;;
2021/12/21 14:27:55;;;;;;;;;;;;;;;;;;;;;
2021/12/21 14:31:17;;;;;;;27.05;17.73;;;3.70;98.60;;;;;;5038965;28;20032;-90
2021/12/21 14:34:10;;;;;;;;;;;3.70;98.40;;;;;;5038889;28;20072;-89
2021/12/21 14:37:19;;;;;;;27.88;18.30;;;3.60;98.20;;;;;;5038667;28;19913;-91
2021/12/21 14:43:13;;;;;;;;;;;;;;;;;;;;;
2021/12/21 14:45:55;;;;;;;;;;;;;;;;;;;;;
2021/12/21 14:48:25;;;;;;;;;;;3.50;98.60;;;;;;5027159;28;20461;-91
2021/12/21 14:51:26;;;;;;;;;;;;;;;;;;;;;
2021/12/21 14:54:23;;;;;;;28.42;19.23;;;3.50;98.50;;;;;;5016521;28;20382;-90
2021/12/21 14:57:31;;;;;;;26.40;18.17;;;3.40;98.40;;;;;;5002239;28;20048;-92
2021/12/21 15:00:31;;;;;;;28.02;18.80;;;3.40;98.50;;;;;;5025087;28;20009;-91
2021/12/21 15:03:04;;;;;;;27.38;18.17;;;3.40;98.60;;;;;;5024363;28;20038;-89
2021/12/21 15:06:17;;;;;;;28.20;19.33;;;3.40;98.60;;;;;;5009215;28;20029;-86
2021/12/21 15:09:08;;;;;;;27.90;19.38;;;3.40;98.60;;;;;;4995869;28;20029;-88
2021/12/21 15:12:15;;;;;;;27.25;18.83;;;3.30;98.70;;;;;;5006856;28;20029;-88
2021/12/21 15:15:10;;;;;;;26.60;18.23;;;3.30;98.80;;;;;;5011598;28;20041;-89
2021/12/21 15:17:49;;;;;;;25.15;18.58;;;3.30;98.90;;;;;;4990602;28;20090;-88
2021/12/21 15:23:33;;;;;;;24.45;17.38;;;3.10;99.00;;;;;;5005500;28;20112;-92
2021/12/21 15:26:29;;;;;;;;;;;;;;;;;;;;;
2021/12/21 15:29:41;;;;;;;27.15;17.45;;;3.10;99.20;;;;;;4993382;28;20036;-90
2021/12/21 15:36:09;;;;;;;;;;;;;;;;;;;;;
2021/12/21 15:39:05;;;;;;;;;;;;;;;;;;;;;
2021/12/21 15:41:44;;;;;;;;;;;;;;;;;;;;;
2021/12/21 15:45:23;;;;;;;28.77;19.23;;;3.00;99.50;;;;;;5024923;28;20025;-88
2021/12/21 15:47:59;;;;;;;27.80;18.10;;;3.00;99.60;;;;;;5012192;28;20049;-90
2021/12/21 15:51:05;;;;;;;27.10;18.80;;;2.90;99.60;;;;;;5019085;28;20079;-90
2021/12/21 15:53:58;;;;;;;;;;;;;;;;;;;;;
2021/12/21 15:59:46;;;;;;;26.95;18.92;;;2.80;99.70;;;;;;4999140;28;20045;-91
2021/12/21 16:02:32;;;;;;;27.40;19.50;;;2.70;99.80;;;;;;4997634;28;20104;-90
2021/12/21 16:05:36;;;;;;;28.50;19.20;;;2.70;99.90;;;;;;5013436;28;20048;-90
2021/12/21 16:08:18;;;;;;;32.25;20.65;;;2.70;99.90;;;;;;4997615;28;20529;-89
2021/12/21 16:10:55;;;;;;;31.92;22.77;;;2.70;99.90;;;;;;5004467;28;20022;-89
2021/12/21 16:13:33;;;;;;;30.35;21.58;;;2.70;99.90;;;;;;5028209;28;20033;-89
2021/12/21 16:16:27;;;;;;;30.35;21.60;;;2.60;99.90;;;;;;4986210;28;20450;-91
2021/12/21 16:19:28;;;;;;;35.78;22.08;;;2.60;99.90;;;;;;5012188;28;20125;-87
2021/12/21 16:22:12;;;;;;;34.45;22.95;;;2.60;99.90;;;;;;5013002;28;20548;-90
2021/12/21 16:25:10;;;;;;;33.50;21.70;;;2.60;99.90;;;;;;5023642;28;20009;-88
2021/12/21 16:31:05;;;;;;;32.40;19.97;;;2.50;99.90;;;;;;5023973;28;20014;-89
2021/12/21 16:37:38;;;;;;;;;;;;;;;;;;;;;
2021/12/21 16:40:41;;;;;;;;;;;;;;;;;;;;;
2021/12/21 16:43:32;;;;;;;;;;;;;;;;;;;;;
2021/12/21 16:49:22;;;;;;;29.23;18.87;;;2.40;99.90;;;;;;5013139;28;20554;-89
2021/12/21 16:52:12;;;;;;;25.92;17.80;;;2.40;99.90;;;;;;5026031;28;20037;-89
2021/12/21 16:54:41;;;;;;;28.70;18.35;;;2.40;99.90;;;;;;5002636;28;20033;-90
2021/12/21 16:57:17;;;;;;;27.37;17.33;;;2.40;99.90;;;;;;5013343;28;20078;-90
2021/12/21 17:05:57;;;;;;;32.08;18.77;;;2.30;99.90;;;;;;5026139;28;20388;-88
2021/12/21 17:08:54;;;;;;;;;;;;;;;;;;;;;
2021/12/21 17:11:28;;;;;;;24.58;15.65;;;2.30;99.90;;;;;;5009101;28;20026;-90
2021/12/21 17:14:31;;;;;;;23.57;15.97;;;2.30;99.90;;;;;;5007663;28;20032;-90
2021/12/21 17:17:26;;;;;;;;;;;;;;;;;;;;;
2021/12/21 17:20:31;;;;;;;;;;;;;;;;;;;;;
2021/12/21 17:23:14;;;;;;;28.60;17.48;;;2.20;99.90;;;;;;4991762;28;20068;-89
2021/12/21 17:25:51;;;;;;;26.00;17.60;;;2.20;99.90;;;;;;5012755;28;20079;-90
2021/12/21 17:28:17;;;;;;;24.85;16.45;;;2.20;99.90;;;;;;5002661;28;20033;-90
2021/12/21 17:30:55;;;;;;;25.27;17.42;;;2.20;99.90;;;;;;5004666;28;20022;-89
2021/12/21 17:33:33;;;;;;;27.80;17.17;;;2.20;99.90;;;;;;5004668;28;20041;-90
2021/12/21 17:36:13;;;;;;;26.70;17.05;;;2.10;99.90;;;;;;4994788;28;20044;-89
2021/12/21 17:38:54;;;;;;;;;;;;;;;;;;;;;
2021/12/21 17:42:00;;;;;;;23.57;15.87;;;2.10;99.90;;;;;;5006272;28;20022;-88
2021/12/21 17:45:40;;;;;;;;;;;;;;;;;;;;;
2021/12/21 17:48:26;;;;;;;22.23;16.35;;;2.10;99.90;;;;;;4927731;29;20072;-89
2021/12/21 17:50:55;;;;;;;24.73;16.98;;;2.10;99.90;;;;;;5057757;28;20024;-88
2021/12/21 17:53:26;;;;;;;30.77;17.60;;;2.10;99.90;;;;;;5043057;28;20033;-87
2021/12/21 17:59:19;;;;;;;23.70;16.53;;;2.00;99.90;;;;;;5029978;28;20032;-89
2021/12/21 18:01:47;;;;;;;30.77;19.85;;;2.00;99.90;;;;;;5021971;28;20159;-90
2021/12/21 18:04:29;;;;;;;22.80;17.17;;;2.00;99.90;;;;;;5021110;28;20034;-87
2021/12/21 18:06:58;;;;;;;25.67;16.93;;;2.00;99.90;;;;;;5025352;28;20037;-86
2021/12/21 18:09:28;;;;;;;24.10;16.38;;;2.00;99.90;;;;;;5001809;28;20037;-86
2021/12/21 18:12:00;;;;;;;26.23;17.02;;;2.00;99.90;;;;;;5019299;28;20041;-96
2021/12/21 18:14:38;;;;;;;;;;;;;;;;;;;;;
2021/12/21 18:17:34;;;;;;;24.75;16.40;;;2.00;99.90;;;;;;5031883;28;20104;-88
2021/12/21 18:23:01;;;;;;;24.90;16.52;;;1.90;99.90;;;;;;5025118;28;20060;-88
2021/12/21 18:25:38;;;;;;;27.40;16.27;;;2.00;99.90;;;;;;5008905;28;20021;-90
2021/12/21 18:28:31;;;;;;;26.88;16.48;;;2.00;99.90;;;;;;5024165;28;20540;-87
2021/12/21 18:31:00;;;;;;;27.13;17.15;;;1.90;99.90;;;;;;5005628;28;20046;-86
2021/12/21 18:34:02;;;;;;;24.70;16.15;;;2.00;99.90;;;;;;5025481;28;20037;-94
2021/12/21 18:37:01;;;;;;;23.60;16.25;;;2.00;99.90;;;;;;5023160;28;20482;-87
2021/12/21 18:40:05;;;;;;;28.35;16.80;;;1.90;99.90;;;;;;5013462;28;20128;-87
2021/12/21 18:42:30;;;;;;;25.13;16.47;;;1.90;99.90;;;;;;5031485;28;20049;-87
2021/12/21 18:48:03;;;;;;;23.65;15.73;;;1.90;99.90;;;;;;5003898;28;20036;-89
2021/12/21 18:50:48;;;;;;;;;;;;;;;;;;;;;
2021/12/21 19:04:31;;;;;;;27.05;18.05;;;1.80;99.90;;;;;;4849434;29;20583;-88
2021/12/21 19:07:28;;;;;;;27.73;17.90;;;1.80;99.90;;;;;;4923197;28;20171;-87
2021/12/21 19:10:09;;;;;;;26.23;17.23;;;1.80;99.90;;;;;;5021437;28;20033;-88
2021/12/21 19:16:24;;;;;;;;;;;;;;;;;;;;;
2021/12/21 19:19:11;;;;;;;27.13;18.47;;;1.60;99.90;;;;;;5031828;28;20037;-89
2021/12/21 19:22:03;;;;;;;;;;;;;;;;;;;;;
2021/12/21 19:24:51;;;;;;;31.33;19.73;;;1.60;99.90;;;;;;5031225;28;20493;-87
2021/12/21 19:27:45;;;;;;;30.33;19.93;;;1.60;99.90;;;;;;5007778;28;20030;-87
2021/12/21 19:30:27;;;;;;;;;;;1.60;99.90;;;;;;5028625;28;20029;-88
2021/12/21 19:33:22;;;;;;;26.73;18.13;;;1.50;99.90;;;;;;5005077;28;19909;-87
2021/12/21 19:36:03;;;;;;;;;;;;;;;;;;;;;
2021/12/21 19:38:32;;;;;;;25.70;18.53;;;1.50;99.90;;;;;;5021801;28;20524;-88
2021/12/21 19:41:31;;;;;;;24.90;18.13;;;1.50;99.90;;;;;;4999797;28;20030;-88
2021/12/21 19:44:39;;;;;;;27.90;19.10;;;1.50;99.90;;;;;;5008946;28;20046;-87
2021/12/21 19:50:38;;;;;;;28.83;19.43;;;1.40;99.90;;;;;;5024788;28;20053;-88
2021/12/21 19:53:34;;;;;;;28.15;19.15;;;1.40;99.90;;;;;;5014620;28;20100;-88
2021/12/21 19:56:30;;;;;;;29.43;18.33;;;1.40;99.90;;;;;;4985931;28;20036;-89
2021/12/21 19:59:10;;;;;;;27.43;18.47;;;1.40;99.90;;;;;;4996578;28;20135;-88
2021/12/21 20:01:58;;;;;;;29.07;19.10;;;1.40;99.90;;;;;;5012053;28;20113;-87
2021/12/21 20:04:40;;;;;;;29.73;18.23;;;1.40;99.90;;;;;;5012512;28;20030;-87
2021/12/21 20:07:38;;;;;;;24.90;16.63;;;1.40;99.90;;;;;;5015529;28;20034;-87
2021/12/21 20:10:23;;;;;;;;;;;;;;;;;;;;;
2021/12/21 20:13:05;;;;;;;;;;;;;;;;;;;;;
2021/12/21 20:15:50;;;;;;;28.75;18.52;;;1.30;99.90;;;;;;5015785;28;20040;-88
2021/12/21 20:18:18;;;;;;;29.73;20.17;;;1.30;99.90;;;;;;5021202;28;20483;-88
2021/12/21 20:20:59;;;;;;;27.87;19.20;;;1.30;99.90;;;;;;5007542;28;20026;-90
2021/12/21 20:26:41;;;;;;;29.60;20.30;;;1.20;99.90;;;;;;4981080;28;20037;-87
2021/12/21 20:29:12;;;;;;;33.50;20.40;;;1.20;99.90;;;;;;5000260;28;20467;-87
2021/12/21 20:31:55;;;;;;;29.98;20.50;;;1.20;99.90;;;;;;4996948;28;20467;-87
2021/12/21 20:34:31;;;;;;;30.37;20.60;;;1.10;99.90;;;;;;5017973;28;20025;-87
2021/12/21 20:37:27;;;;;;;;;;;;;;;;;;;;;
2021/12/21 20:44:20;;;;;;;31.73;19.93;;;1.10;99.90;;;;;;4902716;29;20127;-90
2021/12/21 20:50:36;;;;;;;30.13;18.63;;;1.00;99.90;;;;;;4915257;29;20068;-90
2021/12/21 20:53:16;;;;;;;29.33;19.97;;;1.00;99.90;;;;;;4871083;29;20095;-88
2021/12/21 20:55:49;;;;;;;26.87;18.90;;;0.90;99.90;;;;;;4883092;29;20104;-89
2021/12/21 20:58:27;;;;;;;31.17;19.73;;;0.90;99.90;;;;;;4913941;29;20031;-88
2021/12/21 21:01:15;;;;;;;;;;;;;;;;;;;;;
2021/12/21 21:04:09;;;;;;;27.97;18.90;;;0.90;99.90;;;;;;4913833;29;20489;-87
2021/12/21 21:06:43;;;;;;;27.70;19.53;;;0.80;99.90;;;;;;4900211;29;20062;-87
2021/12/21 21:09:37;;;;;;;29.93;18.87;;;0.80;99.90;;;;;;4900095;29;20110;-87
2021/12/21 21:12:40;;;;;;;29.03;19.47;;;0.80;99.90;;;;;;4909730;29;20808;-87
2021/12/21 21:15:12;;;;;;;28.87;19.20;;;0.80;99.90;;;;;;4887767;29;20112;-87
2021/12/21 21:17:56;;;;;;;;;;;;;;;;;;;;;
2021/12/21 21:20:30;;;;;;;29.90;19.93;;;0.80;99.90;;;;;;4898274;29;20028;-87
2021/12/21 21:23:12;;;;;;;29.13;19.67;;;0.70;99.90;;;;;;4877417;29;20120;-87
2021/12/21 21:26:02;;;;;;;26.83;19.03;;;0.80;99.90;;;;;;4900457;29;20044;-87
2021/12/21 21:28:55;;;;;;;31.87;20.10;;;0.80;99.90;;;;;;4905752;29;20036;-88
2021/12/21 21:31:56;;;;;;;;;;;;;;;;;;;;;
2021/12/21 21:34:47;;;;;;;;;;;;;;;;;;;;;
2021/12/21 21:37:32;;;;;;;30.07;19.10;;;0.70;99.90;;;;;;4896601;29;20044;-86
2021/12/21 21:40:13;;;;;;;31.57;20.00;;;0.70;99.90;;;;;;4897500;29;20502;-86
2021/12/21 21:42:41;;;;;;;32.17;19.33;;;0.70;99.90;;;;;;4882097;29;20037;-87
2021/12/21 21:45:28;;;;;;;29.60;19.43;;;0.70;99.90;;;;;;4894166;29;20032;-85
2021/12/21 21:48:01;;;;;;;32.17;20.73;;;0.60;99.90;;;;;;4904377;29;20063;-85
2021/12/21 21:50:33;;;;;;;30.03;19.67;;;0.60;99.90;;;;;;4921187;29;20024;-85
2021/12/21 21:53:13;;;;;;;;;;;0.60;99.90;;;;;;4904594;29;20028;-86
2021/12/21 21:55:44;;;;;;;29.73;19.50;;;0.60;99.90;;;;;;4929002;28;19916;-86
2021/12/21 21:58:15;;;;;;;31.10;19.00;;;0.60;99.90;;;;;;4943080;28;20027;-85
2021/12/21 22:00:43;;;;;;;30.77;19.05;;;0.50;99.90;;;;;;4943367;28;20092;-85
2021/12/21 22:03:19;;;;;;;;;;;;;;;;;;;;;
2021/12/21 22:06:02;;;;;;;26.23;17.77;;;0.50;99.90;;;;;;4918496;29;20036;-85
2021/12/21 22:08:30;;;;;;;27.57;18.17;;;0.50;99.90;;;;;;4892124;29;20020;-85
2021/12/21 22:10:59;;;;;;;29.93;18.90;;;0.50;99.90;;;;;;4902347;29;20462;-86
2021/12/21 22:13:48;;;;;;;27.97;18.13;;;0.50;99.90;;;;;;4919345;29;20067;-85
2021/12/21 22:16:18;;;;;;;28.80;19.40;;;0.40;99.90;;;;;;4916558;29;20040;-86
2021/12/21 22:18:47;;;;;;;;;;;0.40;99.90;;;;;;4902262;29;20054;-85
2021/12/21 22:21:15;;;;;;;29.80;17.67;;;0.40;99.90;;;;;;4917784;29;19917;-85
2021/12/21 22:23:59;;;;;;;;;;;;;;;;;;;;;
2021/12/21 22:26:36;;;;;;;26.27;17.77;;;0.40;99.90;;;;;;4900657;29;20025;-86
2021/12/21 22:29:17;;;;;;;27.70;18.27;;;0.30;99.90;;;;;;4883575;29;20047;-86
2021/12/21 22:31:46;;;;;;;27.65;18.30;;;0.30;99.90;;;;;;4902334;29;20020;-86
2021/12/21 22:34:24;;;;;;;27.90;17.70;;;0.30;99.90;;;;;;4901959;29;20130;-85
2021/12/21 22:37:03;;;;;;;28.23;18.43;;;0.30;99.90;;;;;;4916983;29;20506;-86
2021/12/21 22:40:19;;;;;;;30.43;18.80;;;0.20;99.90;;;;;;4883306;29;20128;-85
2021/12/21 22:42:48;;;;;;;;;;;;;;;;;;;;;
2021/12/21 22:45:24;;;;;;;33.60;18.47;;;0.20;99.90;;;;;;4900052;29;20024;-86
2021/12/21 22:48:10;;;;;;;;;;;;;;;;;;;;;
2021/12/21 22:50:52;;;;;;;29.57;18.73;;;0.20;99.90;;;;;;4918884;29;20024;-86
2021/12/21 22:53:35;;;;;;;29.85;18.13;;;0.10;99.90;;;;;;4901374;29;20040;-86
2021/12/21 22:56:03;;;;;;;30.30;18.83;;;0.10;99.90;;;;;;4901729;29;20024;-86
2021/12/21 23:01:26;;;;;;;;;;;0.10;99.90;;;;;;4900218;29;20035;-86
2021/12/21 23:03:52;;;;;;;29.33;19.00;;;0.10;99.90;;;;;;4909214;29;19971;-86
2021/12/21 23:06:18;;;;;;;31.77;18.67;;;0.10;99.90;;;;;;4901840;29;20070;-86
2021/12/21 23:08:46;;;;;;;27.67;17.90;;;0.00;99.90;;;;;;4895314;29;20027;-86
2021/12/21 23:11:24;;;;;;;29.30;18.67;;;0.00;99.90;;;;;;4887195;29;20048;-85
2021/12/21 23:13:57;;;;;;;30.30;18.43;;;0.00;99.90;;;;;;4904806;29;20039;-85
2021/12/21 23:16:33;;;;;;;;;;;;;;;;;;;;;
2021/12/21 23:18:59;;;;;;;30.70;20.17;;;0.00;99.90;;;;;;4940654;28;20067;-88
2021/12/21 23:21:42;;;;;;;31.90;19.23;;;0.00;99.90;;;;;;4925444;29;20020;-86
2021/12/21 23:24:13;;;;;;;29.20;18.87;;;0.00;99.90;;;;;;4891639;29;20024;-86
2021/12/21 23:26:49;;;;;;;29.00;18.33;;;0.00;99.90;;;;;;4887356;29;20507;-85
2021/12/21 23:29:17;;;;;;;30.63;19.47;;;0.00;99.90;;;;;;4901132;29;20390;-86
2021/12/21 23:31:59;;;;;;;28.67;18.47;;;-0.10;99.90;;;;;;4886486;29;20039;-85
2021/12/21 23:34:27;;;;;;;28.87;18.07;;;0.00;99.90;;;;;;4917810;29;20028;-85
2021/12/21 23:37:03;;;;;;;27.87;17.47;;;-0.10;99.90;;;;;;4901043;29;20043;-86
2021/12/21 23:39:41;;;;;;;26.77;17.90;;;-0.10;99.90;;;;;;4900906;29;20055;-85
2021/12/21 23:42:24;;;;;;;;;;;;;;;;;;;;;
2021/12/21 23:44:56;;;;;;;28.57;17.70;;;-0.10;99.90;;;;;;4902766;29;20470;-85
2021/12/21 23:47:38;;;;;;;28.17;18.42;;;-0.10;99.90;;;;;;4897683;29;20044;-86
2021/12/21 23:50:14;;;;;;;30.40;19.03;;;-0.10;99.90;;;;;;4897785;29;20028;-87
2021/12/21 23:53:21;;;;;;;30.53;18.80;;;-0.20;99.90;;;;;;4885016;29;20115;-86
2021/12/21 23:55:58;;;;;;;29.43;19.10;;;-0.20;99.90;;;;;;4902558;29;20082;-86
2021/12/21 23:58:31;;;;;;;33.50;18.53;;;-0.20;99.90;;;;;;4900500;29;20044;-85
